sensor_id;sensor_type;location;lat;lon;timestamp;temperature;humidity
14473;DHT22;7322;50.872;4.386;2023-05-09T00:00:20;23.20;99.90
14473;DHT22;7322;50.872;4.386;2023-05-09T00:02:48;23.20;99.90
14473;DHT22;7322;50.872;4.386;2023-05-09T00:05:17;23.20;99.90
14473;DHT22;7322;50.872;4.386;2023-05-09T00:07:44;23.20;99.90
14473;DHT22;7322;50.872;4.386;2023-05-09T00:10:13;23.20;99.90
14473;DHT22;7322;50.872;4.386;2023-05-09T00:12:47;23.20;99.90
14473;DHT22;7322;50.872;4.386;2023-05-09T00:15:16;23.20;99.90
14473;DHT22;7322;50.872;4.386;2023-05-09T00:17:45;23.20;99.90
14473;DHT22;7322;50.872;4.386;2023-05-09T00:20:12;23.20;99.90
14473;DHT22;7322;50.872;4.386;2023-05-09T00:22:48;23.20;99.90
14473;DHT22;7322;50.872;4.386;2023-05-09T00:25:15;23.20;99.90
14473;DHT22;7322;50.872;4.386;2023-05-09T00:27:44;23.20;99.90
14473;DHT22;7322;50.872;4.386;2023-05-09T00:30:17;23.20;99.90
14473;DHT22;7322;50.872;4.386;2023-05-09T00:32:45;23.20;99.90
14473;DHT22;7322;50.872;4.386;2023-05-09T00:35:12;23.20;99.90
14473;DHT22;7322;50.872;4.386;2023-05-09T00:37:39;23.20;99.90
14473;DHT22;7322;50.872;4.386;2023-05-09T00:40:11;23.20;99.90
14473;DHT22;7322;50.872;4.386;2023-05-09T00:42:45;23.20;99.90
14473;DHT22;7322;50.872;4.386;2023-05-09T00:45:14;23.20;99.90
14473;DHT22;7322;50.872;4.386;2023-05-09T00:47:45;23.20;99.90
14473;DHT22;7322;50.872;4.386;2023-05-09T00:50:13;23.20;99.90
14473;DHT22;7322;50.872;4.386;2023-05-09T00:52:42;23.20;99.90
14473;DHT22;7322;50.872;4.386;2023-05-09T00:55:12;23.20;99.90
14473;DHT22;7322;50.872;4.386;2023-05-09T00:57:41;23.20;99.90
14473;DHT22;7322;50.872;4.386;2023-05-09T01:00:10;23.20;99.90
14473;DHT22;7322;50.872;4.386;2023-05-09T01:02:48;23.20;99.90
14473;DHT22;7322;50.872;4.386;2023-05-09T01:05:19;23.20;99.90
14473;DHT22;7322;50.872;4.386;2023-05-09T01:07:53;23.20;99.90
14473;DHT22;7322;50.872;4.386;2023-05-09T01:10:41;23.20;99.90
14473;DHT22;7322;50.872;4.386;2023-05-09T01:13:22;23.20;99.90
14473;DHT22;7322;50.872;4.386;2023-05-09T01:15:55;23.20;99.90
14473;DHT22;7322;50.872;4.386;2023-05-09T01:18:42;23.10;99.90
14473;DHT22;7322;50.872;4.386;2023-05-09T01:21:14;23.10;99.90
14473;DHT22;7322;50.872;4.386;2023-05-09T01:24:12;23.10;99.90
14473;DHT22;7322;50.872;4.386;2023-05-09T01:26:56;23.20;99.90
14473;DHT22;7322;50.872;4.386;2023-05-09T01:29:33;23.10;99.90
14473;DHT22;7322;50.872;4.386;2023-05-09T01:32:05;23.10;99.90
14473;DHT22;7322;50.872;4.386;2023-05-09T01:34:34;23.10;99.90
14473;DHT22;7322;50.872;4.386;2023-05-09T01:37:14;23.10;99.90
14473;DHT22;7322;50.872;4.386;2023-05-09T01:39:52;23.10;99.90
14473;DHT22;7322;50.872;4.386;2023-05-09T01:42:23;23.10;99.90
14473;DHT22;7322;50.872;4.386;2023-05-09T01:44:55;23.10;99.90
14473;DHT22;7322;50.872;4.386;2023-05-09T01:47:22;23.10;99.90
14473;DHT22;7322;50.872;4.386;2023-05-09T01:49:51;23.10;99.90
14473;DHT22;7322;50.872;4.386;2023-05-09T01:52:19;23.10;99.90
14473;DHT22;7322;50.872;4.386;2023-05-09T01:54:53;23.10;99.90
14473;DHT22;7322;50.872;4.386;2023-05-09T01:57:29;23.10;99.90
14473;DHT22;7322;50.872;4.386;2023-05-09T02:00:06;23.10;99.90
14473;DHT22;7322;50.872;4.386;2023-05-09T02:02:33;23.10;99.90
14473;DHT22;7322;50.872;4.386;2023-05-09T02:05:04;23.10;99.90
14473;DHT22;7322;50.872;4.386;2023-05-09T02:07:34;23.10;99.90
14473;DHT22;7322;50.872;4.386;2023-05-09T02:10:05;23.10;99.90
14473;DHT22;7322;50.872;4.386;2023-05-09T02:12:34;23.10;99.90
14473;DHT22;7322;50.872;4.386;2023-05-09T02:15:01;23.10;99.90
14473;DHT22;7322;50.872;4.386;2023-05-09T02:17:30;23.10;99.90
14473;DHT22;7322;50.872;4.386;2023-05-09T02:19:58;23.10;99.90
14473;DHT22;7322;50.872;4.386;2023-05-09T02:22:26;23.10;99.90
14473;DHT22;7322;50.872;4.386;2023-05-09T02:24:53;23.10;99.90
14473;DHT22;7322;50.872;4.386;2023-05-09T02:27:22;23.10;99.90
14473;DHT22;7322;50.872;4.386;2023-05-09T02:29:54;23.10;99.90
14473;DHT22;7322;50.872;4.386;2023-05-09T02:32:27;23.10;99.90
14473;DHT22;7322;50.872;4.386;2023-05-09T02:34:58;23.10;99.90
14473;DHT22;7322;50.872;4.386;2023-05-09T02:37:28;23.10;99.90
14473;DHT22;7322;50.872;4.386;2023-05-09T02:39:56;23.10;99.90
14473;DHT22;7322;50.872;4.386;2023-05-09T02:42:25;23.10;99.90
14473;DHT22;7322;50.872;4.386;2023-05-09T02:44:57;23.10;99.90
14473;DHT22;7322;50.872;4.386;2023-05-09T02:47:24;23.10;99.90
14473;DHT22;7322;50.872;4.386;2023-05-09T02:49:51;23.10;99.90
14473;DHT22;7322;50.872;4.386;2023-05-09T02:52:26;23.10;99.90
14473;DHT22;7322;50.872;4.386;2023-05-09T02:54:56;23.10;99.90
14473;DHT22;7322;50.872;4.386;2023-05-09T02:57:30;23.10;99.90
14473;DHT22;7322;50.872;4.386;2023-05-09T02:59:58;23.10;99.90
14473;DHT22;7322;50.872;4.386;2023-05-09T03:02:44;23.10;99.90
14473;DHT22;7322;50.872;4.386;2023-05-09T03:05:13;23.10;99.90
14473;DHT22;7322;50.872;4.386;2023-05-09T03:07:52;23.10;99.90
14473;DHT22;7322;50.872;4.386;2023-05-09T03:10:19;23.10;99.90
14473;DHT22;7322;50.872;4.386;2023-05-09T03:12:47;23.00;99.90
14473;DHT22;7322;50.872;4.386;2023-05-09T03:15:15;23.10;99.90
14473;DHT22;7322;50.872;4.386;2023-05-09T03:17:45;23.10;99.90
14473;DHT22;7322;50.872;4.386;2023-05-09T03:20:18;23.10;99.90
14473;DHT22;7322;50.872;4.386;2023-05-09T03:22:53;23.10;99.90
14473;DHT22;7322;50.872;4.386;2023-05-09T03:25:20;23.10;99.90
14473;DHT22;7322;50.872;4.386;2023-05-09T03:27:52;23.00;99.90
14473;DHT22;7322;50.872;4.386;2023-05-09T03:30:19;23.00;99.90
14473;DHT22;7322;50.872;4.386;2023-05-09T03:32:53;23.00;99.90
14473;DHT22;7322;50.872;4.386;2023-05-09T03:35:20;23.10;99.90
14473;DHT22;7322;50.872;4.386;2023-05-09T03:37:54;23.00;99.90
14473;DHT22;7322;50.872;4.386;2023-05-09T03:40:25;23.10;99.90
14473;DHT22;7322;50.872;4.386;2023-05-09T03:43:08;23.10;99.90
14473;DHT22;7322;50.872;4.386;2023-05-09T03:45:37;23.10;99.90
14473;DHT22;7322;50.872;4.386;2023-05-09T03:48:04;23.10;99.90
14473;DHT22;7322;50.872;4.386;2023-05-09T03:50:39;23.10;99.90
14473;DHT22;7322;50.872;4.386;2023-05-09T03:53:09;23.10;99.90
14473;DHT22;7322;50.872;4.386;2023-05-09T03:55:39;23.10;99.90
14473;DHT22;7322;50.872;4.386;2023-05-09T03:58:12;23.00;99.90
14473;DHT22;7322;50.872;4.386;2023-05-09T04:00:40;23.10;99.90
14473;DHT22;7322;50.872;4.386;2023-05-09T04:03:10;23.00;99.90
14473;DHT22;7322;50.872;4.386;2023-05-09T04:05:53;23.10;99.90
14473;DHT22;7322;50.872;4.386;2023-05-09T04:08:22;23.10;99.90
14473;DHT22;7322;50.872;4.386;2023-05-09T04:10:49;23.10;99.90
14473;DHT22;7322;50.872;4.386;2023-05-09T04:13:17;23.00;99.90
14473;DHT22;7322;50.872;4.386;2023-05-09T04:15:45;23.10;99.90
14473;DHT22;7322;50.872;4.386;2023-05-09T04:18:12;23.10;99.90
14473;DHT22;7322;50.872;4.386;2023-05-09T04:20:39;23.10;99.90
14473;DHT22;7322;50.872;4.386;2023-05-09T04:23:25;23.00;99.90
14473;DHT22;7322;50.872;4.386;2023-05-09T04:25:53;23.10;99.90
14473;DHT22;7322;50.872;4.386;2023-05-09T04:28:21;23.10;99.90
14473;DHT22;7322;50.872;4.386;2023-05-09T04:30:48;23.10;99.90
14473;DHT22;7322;50.872;4.386;2023-05-09T04:33:15;23.00;99.90
14473;DHT22;7322;50.872;4.386;2023-05-09T04:35:43;23.00;99.90
14473;DHT22;7322;50.872;4.386;2023-05-09T04:38:11;23.00;99.90
14473;DHT22;7322;50.872;4.386;2023-05-09T04:40:42;23.10;99.90
14473;DHT22;7322;50.872;4.386;2023-05-09T04:43:09;23.10;99.90
14473;DHT22;7322;50.872;4.386;2023-05-09T04:45:38;23.00;99.90
14473;DHT22;7322;50.872;4.386;2023-05-09T04:48:05;23.10;99.90
14473;DHT22;7322;50.872;4.386;2023-05-09T04:50:33;23.00;99.90
14473;DHT22;7322;50.872;4.386;2023-05-09T04:53:00;23.10;99.90
14473;DHT22;7322;50.872;4.386;2023-05-09T04:55:27;23.00;99.90
14473;DHT22;7322;50.872;4.386;2023-05-09T04:58:00;23.10;99.90
14473;DHT22;7322;50.872;4.386;2023-05-09T05:00:29;23.10;99.90
14473;DHT22;7322;50.872;4.386;2023-05-09T05:03:04;23.10;99.90
14473;DHT22;7322;50.872;4.386;2023-05-09T05:05:31;23.10;99.90
14473;DHT22;7322;50.872;4.386;2023-05-09T05:08:17;23.10;99.90
14473;DHT22;7322;50.872;4.386;2023-05-09T05:10:44;23.10;99.90
14473;DHT22;7322;50.872;4.386;2023-05-09T05:13:13;23.10;99.90
14473;DHT22;7322;50.872;4.386;2023-05-09T05:15:51;23.00;99.90
14473;DHT22;7322;50.872;4.386;2023-05-09T05:18:46;23.10;99.90
14473;DHT22;7322;50.872;4.386;2023-05-09T05:21:19;23.10;99.90
14473;DHT22;7322;50.872;4.386;2023-05-09T05:24:05;23.00;99.90
14473;DHT22;7322;50.872;4.386;2023-05-09T05:26:45;23.10;99.90
14473;DHT22;7322;50.872;4.386;2023-05-09T05:29:14;23.10;99.90
14473;DHT22;7322;50.872;4.386;2023-05-09T05:31:42;23.00;99.90
14473;DHT22;7322;50.872;4.386;2023-05-09T05:34:11;23.00;99.90
14473;DHT22;7322;50.872;4.386;2023-05-09T05:36:44;23.00;99.90
14473;DHT22;7322;50.872;4.386;2023-05-09T05:39:37;23.00;99.90
14473;DHT22;7322;50.872;4.386;2023-05-09T05:42:04;23.00;99.90
14473;DHT22;7322;50.872;4.386;2023-05-09T05:44:36;23.00;99.90
14473;DHT22;7322;50.872;4.386;2023-05-09T05:47:11;23.00;99.90
14473;DHT22;7322;50.872;4.386;2023-05-09T05:49:43;23.10;99.90
14473;DHT22;7322;50.872;4.386;2023-05-09T05:52:19;23.10;99.90
14473;DHT22;7322;50.872;4.386;2023-05-09T05:54:53;23.10;99.90
14473;DHT22;7322;50.872;4.386;2023-05-09T05:57:28;23.10;99.90
14473;DHT22;7322;50.872;4.386;2023-05-09T06:00:16;23.00;99.90
14473;DHT22;7322;50.872;4.386;2023-05-09T06:02:56;23.10;99.90
14473;DHT22;7322;50.872;4.386;2023-05-09T06:05:34;23.00;99.90
14473;DHT22;7322;50.872;4.386;2023-05-09T06:08:03;23.00;99.90
14473;DHT22;7322;50.872;4.386;2023-05-09T06:13:42;23.10;99.90
14473;DHT22;7322;50.872;4.386;2023-05-09T06:16:33;23.00;99.90
14473;DHT22;7322;50.872;4.386;2023-05-09T06:19:22;23.10;99.90
14473;DHT22;7322;50.872;4.386;2023-05-09T06:21:49;23.10;99.90
14473;DHT22;7322;50.872;4.386;2023-05-09T06:24:41;23.00;99.90
14473;DHT22;7322;50.872;4.386;2023-05-09T06:27:15;23.10;99.90
14473;DHT22;7322;50.872;4.386;2023-05-09T06:32:46;23.10;99.90
14473;DHT22;7322;50.872;4.386;2023-05-09T06:35:21;23.10;99.90
14473;DHT22;7322;50.872;4.386;2023-05-09T06:37:56;23.10;99.90
14473;DHT22;7322;50.872;4.386;2023-05-09T06:40:42;23.10;99.90
14473;DHT22;7322;50.872;4.386;2023-05-09T06:43:11;23.10;99.90
14473;DHT22;7322;50.872;4.386;2023-05-09T06:45:40;23.10;99.90
14473;DHT22;7322;50.872;4.386;2023-05-09T06:48:09;23.10;99.90
14473;DHT22;7322;50.872;4.386;2023-05-09T06:50:45;23.10;99.90
14473;DHT22;7322;50.872;4.386;2023-05-09T06:53:19;23.10;99.90
14473;DHT22;7322;50.872;4.386;2023-05-09T06:55:48;23.10;99.90
14473;DHT22;7322;50.872;4.386;2023-05-09T06:58:15;23.10;99.90
14473;DHT22;7322;50.872;4.386;2023-05-09T07:00:45;23.10;99.90
14473;DHT22;7322;50.872;4.386;2023-05-09T07:03:38;23.10;99.90
14473;DHT22;7322;50.872;4.386;2023-05-09T07:06:13;23.20;99.90
14473;DHT22;7322;50.872;4.386;2023-05-09T07:08:43;23.20;99.90
14473;DHT22;7322;50.872;4.386;2023-05-09T07:11:21;23.20;99.90
14473;DHT22;7322;50.872;4.386;2023-05-09T07:14:20;23.10;99.90
14473;DHT22;7322;50.872;4.386;2023-05-09T07:17:13;23.20;99.90
14473;DHT22;7322;50.872;4.386;2023-05-09T07:19:56;23.20;99.90
14473;DHT22;7322;50.872;4.386;2023-05-09T07:22:25;23.20;99.90
14473;DHT22;7322;50.872;4.386;2023-05-09T07:25:00;23.20;99.90
14473;DHT22;7322;50.872;4.386;2023-05-09T07:27:35;23.30;99.90
14473;DHT22;7322;50.872;4.386;2023-05-09T07:30:21;23.30;99.90
14473;DHT22;7322;50.872;4.386;2023-05-09T07:32:55;23.30;99.90
14473;DHT22;7322;50.872;4.386;2023-05-09T07:35:32;23.30;99.90
14473;DHT22;7322;50.872;4.386;2023-05-09T07:38:05;23.30;99.90
14473;DHT22;7322;50.872;4.386;2023-05-09T07:40:35;23.30;99.90
14473;DHT22;7322;50.872;4.386;2023-05-09T07:43:03;23.30;99.90
14473;DHT22;7322;50.872;4.386;2023-05-09T07:45:47;23.30;99.90
14473;DHT22;7322;50.872;4.386;2023-05-09T07:48:46;23.40;99.90
14473;DHT22;7322;50.872;4.386;2023-05-09T07:51:17;23.40;99.90
14473;DHT22;7322;50.872;4.386;2023-05-09T07:54:12;23.40;99.90
14473;DHT22;7322;50.872;4.386;2023-05-09T07:56:47;23.40;99.90
14473;DHT22;7322;50.872;4.386;2023-05-09T07:59:32;23.40;99.90
14473;DHT22;7322;50.872;4.386;2023-05-09T08:02:14;23.40;99.90
14473;DHT22;7322;50.872;4.386;2023-05-09T08:04:48;23.40;99.90
14473;DHT22;7322;50.872;4.386;2023-05-09T08:07:29;23.40;99.90
14473;DHT22;7322;50.872;4.386;2023-05-09T08:13:04;23.50;99.90
14473;DHT22;7322;50.872;4.386;2023-05-09T08:15:44;23.40;99.90
14473;DHT22;7322;50.872;4.386;2023-05-09T08:18:11;23.50;99.90
14473;DHT22;7322;50.872;4.386;2023-05-09T08:20:44;23.40;99.90
14473;DHT22;7322;50.872;4.386;2023-05-09T08:23:13;23.50;99.90
14473;DHT22;7322;50.872;4.386;2023-05-09T08:25:40;23.50;99.90
14473;DHT22;7322;50.872;4.386;2023-05-09T08:28:11;23.50;99.90
14473;DHT22;7322;50.872;4.386;2023-05-09T08:31:44;23.50;99.90
14473;DHT22;7322;50.872;4.386;2023-05-09T08:33:47;23.50;99.90
14473;DHT22;7322;50.872;4.386;2023-05-09T08:36:15;23.50;99.90
14473;DHT22;7322;50.872;4.386;2023-05-09T08:38:47;23.60;99.90
14473;DHT22;7322;50.872;4.386;2023-05-09T08:41:15;23.70;99.90
14473;DHT22;7322;50.872;4.386;2023-05-09T08:43:46;23.70;99.90
14473;DHT22;7322;50.872;4.386;2023-05-09T08:46:35;23.80;99.90
14473;DHT22;7322;50.872;4.386;2023-05-09T08:49:21;23.80;99.90
14473;DHT22;7322;50.872;4.386;2023-05-09T08:51:52;23.80;99.90
14473;DHT22;7322;50.872;4.386;2023-05-09T08:54:39;23.80;99.90
14473;DHT22;7322;50.872;4.386;2023-05-09T08:57:08;23.80;99.90
14473;DHT22;7322;50.872;4.386;2023-05-09T08:59:45;23.80;99.90
14473;DHT22;7322;50.872;4.386;2023-05-09T09:02:15;23.90;99.90
14473;DHT22;7322;50.872;4.386;2023-05-09T09:04:42;23.90;99.90
14473;DHT22;7322;50.872;4.386;2023-05-09T09:07:13;23.90;99.90
14473;DHT22;7322;50.872;4.386;2023-05-09T09:09:47;23.90;99.90
14473;DHT22;7322;50.872;4.386;2023-05-09T09:12:16;23.90;99.90
14473;DHT22;7322;50.872;4.386;2023-05-09T09:15:04;23.90;99.90
14473;DHT22;7322;50.872;4.386;2023-05-09T09:17:39;24.00;99.90
14473;DHT22;7322;50.872;4.386;2023-05-09T09:20:22;23.90;99.90
14473;DHT22;7322;50.872;4.386;2023-05-09T09:22:56;24.00;99.90
14473;DHT22;7322;50.872;4.386;2023-05-09T09:25:32;24.00;99.90
14473;DHT22;7322;50.872;4.386;2023-05-09T09:27:59;24.00;99.90
14473;DHT22;7322;50.872;4.386;2023-05-09T09:30:42;24.00;99.90
14473;DHT22;7322;50.872;4.386;2023-05-09T09:33:18;24.00;99.90
14473;DHT22;7322;50.872;4.386;2023-05-09T09:35:48;24.00;99.90
14473;DHT22;7322;50.872;4.386;2023-05-09T09:38:22;24.10;99.90
14473;DHT22;7322;50.872;4.386;2023-05-09T09:40:58;24.10;99.90
14473;DHT22;7322;50.872;4.386;2023-05-09T09:43:30;24.20;99.90
14473;DHT22;7322;50.872;4.386;2023-05-09T09:46:00;24.20;99.90
14473;DHT22;7322;50.872;4.386;2023-05-09T09:48:35;24.20;99.90
14473;DHT22;7322;50.872;4.386;2023-05-09T09:51:07;24.20;99.90
14473;DHT22;7322;50.872;4.386;2023-05-09T09:53:38;24.20;99.90
14473;DHT22;7322;50.872;4.386;2023-05-09T09:56:13;24.20;99.90
14473;DHT22;7322;50.872;4.386;2023-05-09T09:58:45;24.20;99.90
14473;DHT22;7322;50.872;4.386;2023-05-09T10:01:13;24.20;99.90
14473;DHT22;7322;50.872;4.386;2023-05-09T10:03:45;24.20;99.90
14473;DHT22;7322;50.872;4.386;2023-05-09T10:06:25;24.10;99.90
14473;DHT22;7322;50.872;4.386;2023-05-09T10:09:03;24.10;99.90
14473;DHT22;7322;50.872;4.386;2023-05-09T10:11:36;24.10;99.90
14473;DHT22;7322;50.872;4.386;2023-05-09T10:14:19;24.10;99.90
14473;DHT22;7322;50.872;4.386;2023-05-09T10:16:53;24.20;99.90
14473;DHT22;7322;50.872;4.386;2023-05-09T10:19:24;24.20;99.90
14473;DHT22;7322;50.872;4.386;2023-05-09T10:21:55;24.20;99.90
14473;DHT22;7322;50.872;4.386;2023-05-09T10:24:27;24.20;99.90
14473;DHT22;7322;50.872;4.386;2023-05-09T10:27:01;24.20;99.90
14473;DHT22;7322;50.872;4.386;2023-05-09T10:29:33;24.20;99.90
14473;DHT22;7322;50.872;4.386;2023-05-09T10:32:22;24.20;99.90
14473;DHT22;7322;50.872;4.386;2023-05-09T10:35:01;24.10;99.90
14473;DHT22;7322;50.872;4.386;2023-05-09T10:37:36;24.10;99.90
14473;DHT22;7322;50.872;4.386;2023-05-09T10:40:24;24.00;99.90
14473;DHT22;7322;50.872;4.386;2023-05-09T10:42:56;24.00;99.90
14473;DHT22;7322;50.872;4.386;2023-05-09T10:45:30;24.00;99.90
14473;DHT22;7322;50.872;4.386;2023-05-09T10:48:05;24.00;99.90
14473;DHT22;7322;50.872;4.386;2023-05-09T10:50:45;23.90;99.90
14473;DHT22;7322;50.872;4.386;2023-05-09T10:53:13;23.90;99.90
14473;DHT22;7322;50.872;4.386;2023-05-09T10:55:49;23.90;99.90
14473;DHT22;7322;50.872;4.386;2023-05-09T10:58:24;23.60;99.90
14473;DHT22;7322;50.872;4.386;2023-05-09T11:00:53;23.50;99.90
14473;DHT22;7322;50.872;4.386;2023-05-09T11:03:23;23.40;99.90
14473;DHT22;7322;50.872;4.386;2023-05-09T11:05:57;23.50;99.90
14473;DHT22;7322;50.872;4.386;2023-05-09T11:11:51;23.40;99.90
14473;DHT22;7322;50.872;4.386;2023-05-09T11:17:38;23.30;99.90
14473;DHT22;7322;50.872;4.386;2023-05-09T11:20:17;23.30;99.90
14473;DHT22;7322;50.872;4.386;2023-05-09T11:23:03;23.20;99.90
14473;DHT22;7322;50.872;4.386;2023-05-09T11:25:39;23.20;99.90
14473;DHT22;7322;50.872;4.386;2023-05-09T11:28:25;23.00;99.90
14473;DHT22;7322;50.872;4.386;2023-05-09T11:31:13;22.90;99.90
14473;DHT22;7322;50.872;4.386;2023-05-09T11:34:00;22.80;99.90
14473;DHT22;7322;50.872;4.386;2023-05-09T11:36:44;22.70;99.90
14473;DHT22;7322;50.872;4.386;2023-05-09T11:39:23;22.80;99.90
14473;DHT22;7322;50.872;4.386;2023-05-09T11:42:05;23.00;99.90
14473;DHT22;7322;50.872;4.386;2023-05-09T11:44:34;23.20;99.90
14473;DHT22;7322;50.872;4.386;2023-05-09T11:47:28;23.30;99.90
14473;DHT22;7322;50.872;4.386;2023-05-09T11:50:01;23.50;99.90
14473;DHT22;7322;50.872;4.386;2023-05-09T11:52:43;23.50;99.90
14473;DHT22;7322;50.872;4.386;2023-05-09T11:55:13;23.60;99.90
14473;DHT22;7322;50.872;4.386;2023-05-09T11:57:43;23.70;99.90
14473;DHT22;7322;50.872;4.386;2023-05-09T12:00:42;23.70;99.90
14473;DHT22;7322;50.872;4.386;2023-05-09T12:03:20;23.80;99.90
14473;DHT22;7322;50.872;4.386;2023-05-09T12:12:46;23.80;99.90
14473;DHT22;7322;50.872;4.386;2023-05-09T12:15:16;23.80;99.90
14473;DHT22;7322;50.872;4.386;2023-05-09T12:17:59;23.80;99.90
14473;DHT22;7322;50.872;4.386;2023-05-09T12:20:39;23.80;99.90
14473;DHT22;7322;50.872;4.386;2023-05-09T12:23:14;23.80;99.90
14473;DHT22;7322;50.872;4.386;2023-05-09T12:25:47;23.90;99.90
14473;DHT22;7322;50.872;4.386;2023-05-09T12:28:26;23.90;99.90
14473;DHT22;7322;50.872;4.386;2023-05-09T12:31:08;24.00;99.90
14473;DHT22;7322;50.872;4.386;2023-05-09T12:34:04;24.00;99.90
14473;DHT22;7322;50.872;4.386;2023-05-09T12:36:58;24.00;99.90
14473;DHT22;7322;50.872;4.386;2023-05-09T12:40:00;24.00;99.90
14473;DHT22;7322;50.872;4.386;2023-05-09T12:42:38;23.80;99.90
14473;DHT22;7322;50.872;4.386;2023-05-09T12:45:16;23.60;99.90
14473;DHT22;7322;50.872;4.386;2023-05-09T12:48:01;23.30;99.90
14473;DHT22;7322;50.872;4.386;2023-05-09T12:50:36;23.20;99.90
14473;DHT22;7322;50.872;4.386;2023-05-09T12:53:26;23.00;99.90
14473;DHT22;7322;50.872;4.386;2023-05-09T12:56:17;22.90;99.90
14473;DHT22;7322;50.872;4.386;2023-05-09T12:59:13;22.80;99.90
14473;DHT22;7322;50.872;4.386;2023-05-09T13:02:16;22.70;99.90
14473;DHT22;7322;50.872;4.386;2023-05-09T13:04:45;22.70;99.90
14473;DHT22;7322;50.872;4.386;2023-05-09T13:07:15;22.60;99.90
14473;DHT22;7322;50.872;4.386;2023-05-09T13:09:56;22.50;99.90
14473;DHT22;7322;50.872;4.386;2023-05-09T13:12:27;22.50;99.90
14473;DHT22;7322;50.872;4.386;2023-05-09T13:14:58;22.70;99.90
14473;DHT22;7322;50.872;4.386;2023-05-09T13:17:28;22.80;99.90
14473;DHT22;7322;50.872;4.386;2023-05-09T13:19:57;23.00;99.90
14473;DHT22;7322;50.872;4.386;2023-05-09T13:22:49;23.10;99.90
14473;DHT22;7322;50.872;4.386;2023-05-09T13:25:26;23.30;99.90
14473;DHT22;7322;50.872;4.386;2023-05-09T13:28:13;23.40;99.90
14473;DHT22;7322;50.872;4.386;2023-05-09T13:30:48;23.50;99.90
14473;DHT22;7322;50.872;4.386;2023-05-09T13:33:21;23.50;99.90
14473;DHT22;7322;50.872;4.386;2023-05-09T13:35:57;23.60;99.90
14473;DHT22;7322;50.872;4.386;2023-05-09T13:38:26;23.60;99.90
14473;DHT22;7322;50.872;4.386;2023-05-09T13:41:04;23.60;99.90
14473;DHT22;7322;50.872;4.386;2023-05-09T13:43:50;23.70;99.90
14473;DHT22;7322;50.872;4.386;2023-05-09T13:46:18;23.70;99.90
14473;DHT22;7322;50.872;4.386;2023-05-09T13:49:06;23.70;99.90
14473;DHT22;7322;50.872;4.386;2023-05-09T13:51:56;23.80;99.90
14473;DHT22;7322;50.872;4.386;2023-05-09T13:54:39;23.80;99.90
14473;DHT22;7322;50.872;4.386;2023-05-09T13:57:07;23.80;99.90
14473;DHT22;7322;50.872;4.386;2023-05-09T13:59:37;23.90;99.90
14473;DHT22;7322;50.872;4.386;2023-05-09T14:02:08;23.90;99.90
14473;DHT22;7322;50.872;4.386;2023-05-09T14:04:49;23.90;99.90
14473;DHT22;7322;50.872;4.386;2023-05-09T14:07:17;23.90;99.90
14473;DHT22;7322;50.872;4.386;2023-05-09T14:09:51;23.90;99.90
14473;DHT22;7322;50.872;4.386;2023-05-09T14:12:21;23.90;99.90
14473;DHT22;7322;50.872;4.386;2023-05-09T14:15:02;23.90;99.90
14473;DHT22;7322;50.872;4.386;2023-05-09T14:17:34;23.90;99.90
14473;DHT22;7322;50.872;4.386;2023-05-09T14:20:12;23.80;99.90
14473;DHT22;7322;50.872;4.386;2023-05-09T14:23:14;23.80;99.90
14473;DHT22;7322;50.872;4.386;2023-05-09T14:25:41;23.80;99.90
14473;DHT22;7322;50.872;4.386;2023-05-09T14:28:17;23.70;99.90
14473;DHT22;7322;50.872;4.386;2023-05-09T14:30:55;23.80;99.90
14473;DHT22;7322;50.872;4.386;2023-05-09T14:33:27;23.80;99.90
14473;DHT22;7322;50.872;4.386;2023-05-09T14:36:17;23.70;99.90
14473;DHT22;7322;50.872;4.386;2023-05-09T14:38:45;23.70;99.90
14473;DHT22;7322;50.872;4.386;2023-05-09T14:44:41;23.80;99.90
14473;DHT22;7322;50.872;4.386;2023-05-09T14:47:09;23.70;99.90
14473;DHT22;7322;50.872;4.386;2023-05-09T14:49:36;23.70;99.90
14473;DHT22;7322;50.872;4.386;2023-05-09T14:52:06;23.70;99.90
14473;DHT22;7322;50.872;4.386;2023-05-09T14:54:40;23.70;99.90
14473;DHT22;7322;50.872;4.386;2023-05-09T14:57:07;23.70;99.90
14473;DHT22;7322;50.872;4.386;2023-05-09T14:59:34;23.60;99.90
14473;DHT22;7322;50.872;4.386;2023-05-09T15:02:03;23.60;99.90
14473;DHT22;7322;50.872;4.386;2023-05-09T15:04:30;23.60;99.90
14473;DHT22;7322;50.872;4.386;2023-05-09T15:07:15;23.60;99.90
14473;DHT22;7322;50.872;4.386;2023-05-09T15:09:42;23.60;99.90
14473;DHT22;7322;50.872;4.386;2023-05-09T15:12:10;23.50;99.90
14473;DHT22;7322;50.872;4.386;2023-05-09T15:14:44;23.50;99.90
14473;DHT22;7322;50.872;4.386;2023-05-09T15:17:17;23.50;99.90
14473;DHT22;7322;50.872;4.386;2023-05-09T15:19:44;23.40;99.90
14473;DHT22;7322;50.872;4.386;2023-05-09T15:22:11;23.40;99.90
14473;DHT22;7322;50.872;4.386;2023-05-09T15:24:39;23.40;99.90
14473;DHT22;7322;50.872;4.386;2023-05-09T15:27:08;23.40;99.90
14473;DHT22;7322;50.872;4.386;2023-05-09T15:29:35;23.40;99.90
14473;DHT22;7322;50.872;4.386;2023-05-09T15:32:03;23.30;99.90
14473;DHT22;7322;50.872;4.386;2023-05-09T15:34:30;23.30;99.90
14473;DHT22;7322;50.872;4.386;2023-05-09T15:36:58;23.30;99.90
14473;DHT22;7322;50.872;4.386;2023-05-09T15:39:25;23.20;99.90
14473;DHT22;7322;50.872;4.386;2023-05-09T15:41:54;23.20;99.90
14473;DHT22;7322;50.872;4.386;2023-05-09T15:44:21;23.20;99.90
14473;DHT22;7322;50.872;4.386;2023-05-09T15:46:48;23.10;99.90
14473;DHT22;7322;50.872;4.386;2023-05-09T15:49:15;23.10;99.90
14473;DHT22;7322;50.872;4.386;2023-05-09T15:51:48;23.10;99.90
14473;DHT22;7322;50.872;4.386;2023-05-09T15:54:22;23.10;99.90
14473;DHT22;7322;50.872;4.386;2023-05-09T15:56:52;23.00;99.90
14473;DHT22;7322;50.872;4.386;2023-05-09T15:59:23;23.10;99.90
14473;DHT22;7322;50.872;4.386;2023-05-09T16:01:50;23.10;99.90
14473;DHT22;7322;50.872;4.386;2023-05-09T16:04:17;23.10;99.90
14473;DHT22;7322;50.872;4.386;2023-05-09T16:07:08;23.10;99.90
14473;DHT22;7322;50.872;4.386;2023-05-09T16:09:40;23.10;99.90
14473;DHT22;7322;50.872;4.386;2023-05-09T16:12:13;23.10;99.90
14473;DHT22;7322;50.872;4.386;2023-05-09T16:14:47;23.10;99.90
14473;DHT22;7322;50.872;4.386;2023-05-09T16:17:15;23.20;99.90
14473;DHT22;7322;50.872;4.386;2023-05-09T16:19:49;23.10;99.90
14473;DHT22;7322;50.872;4.386;2023-05-09T16:22:20;23.10;99.90
14473;DHT22;7322;50.872;4.386;2023-05-09T16:24:50;23.20;99.90
14473;DHT22;7322;50.872;4.386;2023-05-09T16:27:22;23.10;99.90
14473;DHT22;7322;50.872;4.386;2023-05-09T16:29:52;23.10;99.90
14473;DHT22;7322;50.872;4.386;2023-05-09T16:32:23;23.10;99.90
14473;DHT22;7322;50.872;4.386;2023-05-09T16:34:59;23.10;99.90
14473;DHT22;7322;50.872;4.386;2023-05-09T16:37:27;23.10;99.90
14473;DHT22;7322;50.872;4.386;2023-05-09T16:39:54;23.10;99.90
14473;DHT22;7322;50.872;4.386;2023-05-09T16:42:26;23.20;99.90
14473;DHT22;7322;50.872;4.386;2023-05-09T16:44:58;23.20;99.90
14473;DHT22;7322;50.872;4.386;2023-05-09T16:47:26;23.20;99.90
14473;DHT22;7322;50.872;4.386;2023-05-09T16:49:53;23.20;99.90
14473;DHT22;7322;50.872;4.386;2023-05-09T16:52:22;23.10;99.90
14473;DHT22;7322;50.872;4.386;2023-05-09T16:54:59;23.10;99.90